Terminal Aerodrome Forecast
Issued by NWS

Home | Current Version | Previous Version | Text Only | Print | Product List | Glossary On
Versions: 1 2 3 4 5 6 7 8 9 10 11 12 13 14 15 16 17 18 19 20 21 22
593
FTUS44 KBMX 240749 AAA
TAFMGM
TAF AMD
KMGM 240749Z 2408/2506 20003KT P6SM BKN008
     FM240900 22003KT 3SM SHRA BKN007
     FM241500 27005KT P6SM BKN015
     FM241800 26006KT P6SM VCSH BKN035 PROB30 2421/2424 4SM TSRA
      BKN030CB
     FM250100 27004KT P6SM BKN050=

USA.gov is the U.S. government's official web portal to all federal, state and local government web resources and services.